PWSweather.com
Personal Weather Stations
Station Observations
WHITEHV
Whitehorse, YK y1a5w5

Whitehorse, YK y1a5w5

Lat: 60.829, Lon: -135.194

Elevation: 2165

Station Type: DAVIS VANTAGE PRO 2

Latest ConditionsUpdated 6:00:23 AM PDT Monday, Oct 20, 2014
Currently Today's Max Today's Min Today's Average
Temperature 35.1°F1.7°C 35.8°F2.1°C 33.6°F0.9°C 35.1°F1.7°C
Dew Point 33.0°F0.6°C 33.5°F0.8°C 31.3°F-0.4°C 32.8°F0.4°C
Winds 0.8 mph SE1.3 kmh SE 0.8 mph SE1.3 kmh SE - 0.0 mph 0.0 kmh
Wind Gusts 3.0 mph4.8 kmh 3.0 mph4.8 kmh - -
Humidity 92% 92% 91% 91%
Pressure 29.26 in990.9 mb 29.26 in990.9 mb 29.18 in988.1 mb -
Hour Temp Dew Point Humidity Winds Wind Gusts Pressure Precip Precip Rate Daily Precip Total
06:00 AM 35.1°F1.7°C 33.0°F0.6°C 92% 0.8 mph SE1.3 kmh SE 3.0 mph4.8 kmh 29.26 in990.9 mb 0.00 in0.0 mm 0.00 in/hr0.0 mm/hr 0.00 in0.0 mm
05:45 AM 34.7°F1.5°C 32.6°F0.3°C 92% Calm Calm 1.0 mph1.6 kmh 29.26 in990.9 mb 0.00 in0.0 mm 0.00 in/hr0.0 mm/hr 0.00 in0.0 mm
05:30 AM 34.3°F1.3°C 32.2°F0.1°C 92% Calm Calm -- 29.26 in990.9 mb 0.00 in0.0 mm 0.00 in/hr0.0 mm/hr 0.00 in0.0 mm
05:15 AM 33.8°F1.0°C 31.7°F-0.2°C 92% 0.1 mph ESE0.2 kmh ESE 1.0 mph1.6 kmh 29.26 in990.9 mb 0.00 in0.0 mm 0.00 in/hr0.0 mm/hr 0.00 in0.0 mm
05:00 AM 33.6°F0.9°C 31.3°F-0.4°C 91% Calm Calm -- 29.26 in990.9 mb 0.00 in0.0 mm 0.00 in/hr0.0 mm/hr 0.00 in0.0 mm
04:45 AM 33.7°F0.9°C 31.4°F-0.3°C 91% Calm Calm -- 29.26 in990.9 mb 0.00 in0.0 mm 0.00 in/hr0.0 mm/hr 0.00 in0.0 mm
04:30 AM 34.0°F1.1°C 31.6°F-0.2°C 91% Calm Calm -- 29.26 in990.9 mb 0.00 in0.0 mm 0.00 in/hr0.0 mm/hr 0.00 in0.0 mm
04:15 AM 34.3°F1.3°C 31.9°F-0.1°C 91% Calm Calm -- 29.26 in990.9 mb 0.00 in0.0 mm 0.00 in/hr0.0 mm/hr 0.00 in0.0 mm
04:00 AM 34.6°F1.4°C 32.2°F0.1°C 91% Calm Calm -- 29.26 in990.9 mb 0.00 in0.0 mm 0.00 in/hr0.0 mm/hr 0.00 in0.0 mm
03:45 AM 35.0°F1.7°C 32.7°F0.4°C 91% Calm Calm -- 29.26 in990.9 mb 0.00 in0.0 mm 0.00 in/hr0.0 mm/hr 0.00 in0.0 mm
03:30 AM 35.3°F1.8°C 32.9°F0.5°C 91% Calm Calm -- 29.26 in990.9 mb 0.00 in0.0 mm 0.00 in/hr0.0 mm/hr 0.00 in0.0 mm
03:15 AM 35.5°F1.9°C 33.4°F0.8°C 92% Calm Calm -- 29.26 in990.9 mb 0.00 in0.0 mm 0.00 in/hr0.0 mm/hr 0.00 in0.0 mm
03:00 AM 35.6°F2.0°C 33.5°F0.8°C 92% Calm Calm -- 29.26 in990.9 mb 0.00 in0.0 mm 0.00 in/hr0.0 mm/hr 0.00 in0.0 mm
02:45 AM 35.6°F2.0°C 33.5°F0.8°C 92% Calm Calm -- 29.26 in990.9 mb 0.00 in0.0 mm 0.00 in/hr0.0 mm/hr 0.00 in0.0 mm
02:30 AM 35.7°F2.1°C 33.3°F0.7°C 91% Calm Calm -- 29.26 in990.9 mb 0.00 in0.0 mm 0.00 in/hr0.0 mm/hr 0.00 in0.0 mm
02:15 AM 35.7°F2.1°C 33.3°F0.7°C 91% Calm Calm -- 29.25 in990.5 mb 0.00 in0.0 mm 0.00 in/hr0.0 mm/hr 0.00 in0.0 mm
02:00 AM 35.8°F2.1°C 33.4°F0.8°C 91% Calm Calm -- 29.24 in990.2 mb 0.00 in0.0 mm 0.00 in/hr0.0 mm/hr 0.00 in0.0 mm
01:45 AM 35.8°F2.1°C 33.4°F0.8°C 91% Calm Calm -- 29.24 in990.2 mb 0.00 in0.0 mm 0.00 in/hr0.0 mm/hr 0.00 in0.0 mm
01:30 AM 35.8°F2.1°C 33.4°F0.8°C 91% Calm Calm -- 29.23 in989.8 mb 0.00 in0.0 mm 0.00 in/hr0.0 mm/hr 0.00 in0.0 mm
01:15 AM 35.8°F2.1°C 33.4°F0.8°C 91% Calm Calm -- 29.23 in989.8 mb 0.00 in0.0 mm 0.00 in/hr0.0 mm/hr 0.00 in0.0 mm
01:00 AM 35.7°F2.1°C 33.3°F0.7°C 91% Calm Calm -- 29.22 in989.5 mb 0.00 in0.0 mm 0.00 in/hr0.0 mm/hr 0.00 in0.0 mm
12:45 AM 35.7°F2.1°C 33.3°F0.7°C 91% Calm Calm -- 29.21 in989.2 mb 0.00 in0.0 mm 0.00 in/hr0.0 mm/hr 0.00 in0.0 mm
12:30 AM 35.7°F2.1°C 33.3°F0.7°C 91% Calm Calm -- 29.20 in988.8 mb 0.00 in0.0 mm 0.00 in/hr0.0 mm/hr 0.00 in0.0 mm
12:15 AM 35.7°F2.1°C 33.3°F0.7°C 91% Calm Calm -- 29.19 in988.5 mb 0.00 in0.0 mm 0.00 in/hr0.0 mm/hr 0.00 in0.0 mm
12:00 AM 35.8°F2.1°C 33.4°F0.8°C 91% Calm Calm -- 29.18 in988.1 mb 0.00 in0.0 mm 0.00 in/hr0.0 mm/hr 0.00 in0.0 mm